Phoenix, AZ (85013)

12:27 PM MST on September 21, 2014 (GMT -0700)
North Central Phoenix | Change Station
CLOSE
Current Station
Personal Weather Station
Location: Phoenix, AZ
Elevation: 1155 ft
Nearby Weather Stations

Elev 1155 ft 33.52 °N, 112.08 °W | Updated 5 seconds ago

Partly Cloudy
Partly Cloudy
97.0 °F
Feels Like 94 °F
N
0.0
Wind Variable Wind from ESE
Gusts 2.0 mph

Today
High -- | Low -- °F
--% Chance of Precip.
Yesterday
High -- | Low -- °F
Precip. -- in
6:15 AM 6:26 PM
Waning Crescent, 6% visible
Pressure 29.86 in
Visibility 10.0 miles
Clouds Few 8000 ft
Scattered Clouds 15000 ft
Scattered Clouds 25000 ft
Heat Index 94 °F
Dew Point 50 °F
Humidity 21%
Rainfall 0.00 in
Snow Depth 0 in , 1 in
UV 7 out of 12
Pollen 6.40 out of 12
Ozone Good
PM2.5 Good
Flu Activity Not available.
METAR KPHX 211851Z 07004KT 10SM FEW080 SCT150 SCT250 35/12 A2992 RMK AO2 SLP112 T03500122

More Conditions Fewer Conditions

Pressure 29.86 in
Visibility 10.0 miles
Clouds Few 8000 ft
Scattered Clouds 15000 ft
Scattered Clouds 25000 ft
Heat Index 94 °F
Dew Point 50 °F
Humidity 21%
Rainfall 0.00 in
Snow Depth 0 in , 1 in
UV 7 out of 12
Pollen 6.40 out of 12
Ozone Good
PM2.5 Good
Flu Activity Not available.
METAR KPHX 211851Z 07004KT 10SM FEW080 SCT150 SCT250 35/12 A2992 RMK AO2 SLP112 T03500122

More Conditions Fewer Conditions

10-Day Weather Forecast

Almanac

Astronomy

Sep. 21, 2014 Rise Set
Actual Time 6:15 AM MST 6:26 PM MST
Civil Twilight 5:50 AM MST 6:51 PM MST
Nautical Twilight 5:21 AM MST 7:20 PM MST
Astronomical Twilight 4:52 AM MST 7:49 PM MST
Moon 3:58 AM MST 5:00 PM MST
Length of Visible Light 13h 00m
Length of Day
12h 10m
Tomorrow will be 2m 4s shorter.
Waning Crescent, 6% of the Moon is Illuminated
Today
Waning Crescent
Sep 24
New
Oct 1
First Quarter
Oct 8
Full
Oct 15
Last Quarter

Today's Extremes

State Highs State Lows

Community

WunderPhotos

Upload Photos

1,755,226 photos uploaded!

Nearby

Air Quality

  Air Quality AQ Index Pollutant
Yesterday Good
PM2.5
Yesterday Good
OZONE
Current Good
OZONE
Current Good
PM2.5
Sunday Good
PM2.5
Sunday Moderate
OZONE
Sunday Good
CO
Monday Moderate
OZONE
Monday Good
PM10
Monday Good
CO
Tuesday Moderate
OZONE
Tuesday Good
PM10
Tuesday Good
CO

Snow Depth

Station Depth Elevation
Snowslide Canyon 0 in 9730 ft
Workman Creek 1 in 6900 ft

Earthquake Activity

City Distance Mag. Time & Date
No recent earthquake activity has been reported nearby.
Minimum magnitude displayed is 2.5.

Coastal Water Temperatures

Place Temperature
No Stations Reporting

Nearby Weather Stations